Pekin, Indiana
Current Conditions -  °F | °C
As of 1:56 PM on Monday 20 Oct 2014 (Local Time) from KSDF Reporting Station
Broken Clouds Broken Clouds  
Wind Chill: 62°   Ceiling: 9000
Heat Index: 62°   Visibility: 10mi
Dew Point: 50°   Wind: 14mph
Humidity: 65%   Direction: 200°SSW
Pressure: 29.93"   Gusts: 23mph
Location:  38.47°N, 86.06°W
Report Text: KSDF 201756Z 20012G20KT 10SM BKN090 17/10 A2993 RMK AO2 SLP135 60011 T01670100 10172 20094 58034
Loading
Personal Weather Stations






























Interactive Weather Map
Tropical Storm Tracking
New forecast layout! Learn more

10-Day Weather Forecast

Advertisements
Track Severe Weather on mobile